createdAt,value
2018-02-15T00:00:08.309Z,64.89
2018-02-15T00:02:39.295Z,65.31
2018-02-15T00:05:10.326Z,65.24
2018-02-15T00:07:41.305Z,65.55
2018-02-15T00:10:12.334Z,65.60
2018-02-15T00:12:43.299Z,65.64
2018-02-15T00:15:14.256Z,65.51
2018-02-15T00:17:45.258Z,65.73
2018-02-15T00:20:16.269Z,65.69
2018-02-15T00:22:47.298Z,65.45
2018-02-15T00:25:18.317Z,65.35
2018-02-15T00:27:49.286Z,65.18
2018-02-15T00:30:20.334Z,64.85
2018-02-15T00:32:51.324Z,65.23
2018-02-15T00:35:22.307Z,65.55
2018-02-15T00:37:53.326Z,65.52
2018-02-15T00:40:24.256Z,65.94
2018-02-15T00:42:55.267Z,66.14
2018-02-15T00:45:26.219Z,65.96
2018-02-15T00:47:57.232Z,65.81
2018-02-15T00:50:28.205Z,65.65
2018-02-15T00:52:59.215Z,65.69
2018-02-15T00:55:30.195Z,66.00
2018-02-15T00:58:01.200Z,66.13
2018-02-15T01:00:32.184Z,66.30
2018-02-15T01:03:03.256Z,66.55
2018-02-15T01:05:34.296Z,66.59
2018-02-15T01:08:05.245Z,66.66
2018-02-15T01:10:36.269Z,66.75
2018-02-15T01:13:07.967Z,67.01
2018-02-15T01:15:38.964Z,67.14
2018-02-15T01:18:09.945Z,66.95
2018-02-15T01:20:40.925Z,66.49
2018-02-15T01:23:11.923Z,66.26
2018-02-15T01:25:42.919Z,66.14
2018-02-15T01:28:13.979Z,66.58
2018-02-15T01:30:44.923Z,67.30
2018-02-15T01:33:15.951Z,67.14
2018-02-15T01:35:46.956Z,67.15
2018-02-15T01:38:17.935Z,67.31
2018-02-15T01:40:48.976Z,66.81
2018-02-15T01:43:19.943Z,66.75
2018-02-15T01:45:50.951Z,66.95
2018-02-15T01:48:21.905Z,67.19
2018-02-15T01:50:52.931Z,67.36
2018-02-15T01:53:23.898Z,67.86
2018-02-15T01:55:54.838Z,67.80
2018-02-15T01:58:25.878Z,68.25
2018-02-15T02:00:56.846Z,67.80
2018-02-15T02:03:27.807Z,67.45
2018-02-15T02:05:58.803Z,67.31
2018-02-15T02:08:29.834Z,67.44
2018-02-15T02:11:01.002Z,68.09
2018-02-15T02:13:32.009Z,68.20
2018-02-15T02:16:03.044Z,68.20
2018-02-15T02:18:34.016Z,68.33
2018-02-15T02:21:05.031Z,68.33
2018-02-15T02:23:36.005Z,68.46
2018-02-15T02:26:06.991Z,68.39
2018-02-15T02:28:38.040Z,68.58
2018-02-15T02:31:09.043Z,68.53
2018-02-15T02:33:40.063Z,68.50
2018-02-15T02:36:11.120Z,68.39
2018-02-15T02:38:42.093Z,68.57
2018-02-15T02:41:13.072Z,68.32
2018-02-15T02:43:44.051Z,68.10
2018-02-15T02:46:15.029Z,68.12
2018-02-15T02:48:46.041Z,68.03
2018-02-15T02:51:17.022Z,67.94
2018-02-15T02:53:48.047Z,68.13
2018-02-15T02:56:19.046Z,68.17
2018-02-15T02:58:50.031Z,68.30
2018-02-15T03:01:21.054Z,68.23
2018-02-15T03:03:52.010Z,68.31
2018-02-15T03:06:23.025Z,68.44
2018-02-15T03:08:54.029Z,68.52
2018-02-15T03:11:25.079Z,68.67
2018-02-15T03:13:56.081Z,68.66
2018-02-15T03:16:27.095Z,68.59
2018-02-15T03:18:58.071Z,68.79
2018-02-15T03:21:29.037Z,68.78
2018-02-15T03:24:00.043Z,68.67
2018-02-15T03:26:31.072Z,68.92
2018-02-15T03:29:02.105Z,68.57
2018-02-15T03:31:33.074Z,68.92
2018-02-15T03:34:04.525Z,68.86
2018-02-15T03:36:35.530Z,68.87
2018-02-15T03:39:06.547Z,68.31
2018-02-15T03:41:37.515Z,68.10
2018-02-15T03:44:08.513Z,67.95
2018-02-15T03:46:39.545Z,67.95
2018-02-15T03:49:10.578Z,67.60
2018-02-15T03:51:41.556Z,67.31
2018-02-15T03:54:12.563Z,66.81
2018-02-15T03:56:43.544Z,66.31
2018-02-15T03:59:14.507Z,66.10
2018-02-15T04:01:45.539Z,66.39
2018-02-15T04:04:16.506Z,66.73
2018-02-15T04:06:47.570Z,66.79
2018-02-15T04:09:18.589Z,67.25
2018-02-15T04:11:51.230Z,67.53
2018-02-15T04:14:22.224Z,67.62
2018-02-15T04:16:53.265Z,67.32
2018-02-15T04:19:24.245Z,66.93
2018-02-15T04:21:55.287Z,66.44
2018-02-15T04:24:26.337Z,66.07
2018-02-15T04:26:57.397Z,65.61
2018-02-15T04:29:28.367Z,65.09
2018-02-15T04:31:59.386Z,64.88
2018-02-15T04:34:30.392Z,64.60
2018-02-15T04:37:01.462Z,64.20
2018-02-15T04:39:32.493Z,63.67
2018-02-15T04:42:03.518Z,63.28
2018-02-15T04:44:34.490Z,63.10
2018-02-15T04:47:05.546Z,62.89
2018-02-15T04:49:36.549Z,62.64
2018-02-15T04:52:07.607Z,62.36
2018-02-15T04:54:38.577Z,62.06
2018-02-15T04:57:09.574Z,61.34
2018-02-15T04:59:40.544Z,61.46
2018-02-15T05:02:11.569Z,61.44
2018-02-15T05:04:42.554Z,61.27
2018-02-15T05:07:13.619Z,61.14
2018-02-15T05:09:44.619Z,60.99
2018-02-15T05:12:15.635Z,60.89
2018-02-15T05:14:46.689Z,60.75
2018-02-15T05:17:17.681Z,60.69
2018-02-15T05:19:48.736Z,60.59
2018-02-15T05:22:19.709Z,60.71
2018-02-15T05:24:50.707Z,60.72
2018-02-15T05:27:21.701Z,60.73
2018-02-15T05:29:52.734Z,60.88
2018-02-15T05:32:23.691Z,60.73
2018-02-15T05:34:56.499Z,60.87
2018-02-15T05:37:27.476Z,60.89
2018-02-15T05:39:58.523Z,61.16
2018-02-15T05:42:29.494Z,61.41
2018-02-15T05:45:00.496Z,61.61
2018-02-15T05:47:31.512Z,61.91
2018-02-15T05:50:02.531Z,61.75
2018-02-15T05:52:33.537Z,61.71
2018-02-15T05:55:04.526Z,61.60
2018-02-15T05:57:35.548Z,61.37
2018-02-15T06:00:06.589Z,61.24
2018-02-15T06:02:37.594Z,61.06
2018-02-15T06:05:08.549Z,61.18
2018-02-15T06:07:39.592Z,61.11
2018-02-15T06:10:10.643Z,60.97
2018-02-15T06:12:41.621Z,61.04
2018-02-15T06:15:12.696Z,60.94
2018-02-15T06:17:43.699Z,60.73
2018-02-15T06:20:14.745Z,60.53
2018-02-15T06:22:45.767Z,60.60
2018-02-15T06:25:16.800Z,60.48
2018-02-15T06:27:47.879Z,60.36
2018-02-15T06:30:18.916Z,60.43
2018-02-15T06:32:49.959Z,60.18
2018-02-15T06:35:20.955Z,59.98
2018-02-15T06:37:52.020Z,59.73
2018-02-15T06:40:23.021Z,59.42
2018-02-15T06:42:54.045Z,59.12
2018-02-15T06:45:25.142Z,58.54
2018-02-15T06:47:56.152Z,58.21
2018-02-15T06:50:27.201Z,57.36
2018-02-15T06:52:58.220Z,57.17
2018-02-15T06:55:29.261Z,57.03
2018-02-15T06:58:00.318Z,56.62
2018-02-15T07:00:31.305Z,56.47
2018-02-15T07:03:02.365Z,56.04
2018-02-15T07:05:33.428Z,55.92
2018-02-15T07:08:04.481Z,55.74
2018-02-15T07:10:35.492Z,55.29
2018-02-15T07:13:06.493Z,54.16
2018-02-15T07:15:37.485Z,54.35
2018-02-15T07:18:08.489Z,53.81
2018-02-15T07:20:39.586Z,53.37
2018-02-15T07:23:10.593Z,53.53
2018-02-15T07:25:41.675Z,53.55
2018-02-15T07:28:12.677Z,53.04
2018-02-15T07:30:43.760Z,52.54
2018-02-15T07:33:14.888Z,52.15
2018-02-15T07:35:45.949Z,50.71
2018-02-15T07:38:16.975Z,50.90
2018-02-15T07:40:48.014Z,50.30
2018-02-15T07:43:19.070Z,49.70
2018-02-15T07:45:50.108Z,50.12
2018-02-15T07:48:21.155Z,49.38
2018-02-15T07:50:52.225Z,49.36
2018-02-15T07:53:23.294Z,49.11
2018-02-15T07:55:54.414Z,48.71
2018-02-15T07:58:25.510Z,48.45
2018-02-15T08:00:57.526Z,47.72
2018-02-15T08:03:28.576Z,47.08
2018-02-15T08:05:59.651Z,46.67
2018-02-15T08:08:30.676Z,46.09
2018-02-15T08:11:01.688Z,44.78
2018-02-15T08:13:32.708Z,44.42
2018-02-15T08:16:03.749Z,44.07
2018-02-15T08:18:34.758Z,42.91
2018-02-15T08:21:05.736Z,43.59
2018-02-15T08:23:36.786Z,41.67
2018-02-15T08:26:07.858Z,42.03
2018-02-15T08:28:38.888Z,40.80
2018-02-15T08:31:09.967Z,41.00
2018-02-15T08:33:40.984Z,40.25
2018-02-15T08:36:12.020Z,39.48
2018-02-15T08:38:43.043Z,39.37
2018-02-15T08:41:14.138Z,38.69
2018-02-15T08:43:45.206Z,37.87
2018-02-15T08:46:16.226Z,38.27
2018-02-15T08:48:47.302Z,37.85
2018-02-15T08:51:18.374Z,37.25
2018-02-15T08:53:49.396Z,36.19
2018-02-15T08:56:20.410Z,35.11
2018-02-15T08:59:06.387Z,34.14
2018-02-15T09:01:37.420Z,33.71
2018-02-15T09:04:08.468Z,33.49
2018-02-15T09:06:39.528Z,32.66
2018-02-15T09:09:17.630Z,32.14
2018-02-15T09:11:48.663Z,31.24
2018-02-15T09:14:19.716Z,32.17
2018-02-15T09:16:50.724Z,31.30
2018-02-15T09:19:21.820Z,31.34
2018-02-15T09:21:52.863Z,31.87
2018-02-15T09:24:23.888Z,32.27
2018-02-15T09:26:54.909Z,32.29
2018-02-15T09:29:25.940Z,32.50
2018-02-15T09:31:56.999Z,31.86
2018-02-15T09:34:28.076Z,32.07
2018-02-15T09:36:59.088Z,31.63
2018-02-15T09:39:30.130Z,30.92
2018-02-15T09:42:01.209Z,29.93
2018-02-15T09:44:32.258Z,29.42
2018-02-15T09:47:03.281Z,29.46
2018-02-15T09:49:34.268Z,29.39
2018-02-15T09:52:05.306Z,29.85
2018-02-15T09:54:36.336Z,29.87
2018-02-15T09:57:07.381Z,29.83
2018-02-15T09:59:38.445Z,30.07
2018-02-15T10:02:09.482Z,30.27
2018-02-15T10:04:40.520Z,30.59
2018-02-15T10:07:11.570Z,30.80
2018-02-15T10:09:42.637Z,30.40
2018-02-15T10:12:13.685Z,30.38
2018-02-15T10:14:44.744Z,29.91
2018-02-15T10:17:15.769Z,29.73
2018-02-15T10:19:47.762Z,29.64
2018-02-15T10:22:18.791Z,29.84
2018-02-15T10:24:49.876Z,30.08
2018-02-15T10:27:20.924Z,29.78
2018-02-15T10:29:52.002Z,29.91
2018-02-15T10:32:23.049Z,29.94
2018-02-15T10:34:54.104Z,29.26
2018-02-15T10:37:25.112Z,29.24
2018-02-15T10:39:56.148Z,28.92
2018-02-15T10:42:27.224Z,28.64
2018-02-15T10:44:58.270Z,28.20
2018-02-15T10:47:29.320Z,28.26
2018-02-15T10:50:00.335Z,26.99
2018-02-15T10:52:31.418Z,26.82
2018-02-15T10:55:02.444Z,27.63
2018-02-15T10:57:33.510Z,27.71
2018-02-15T11:00:04.590Z,27.94
2018-02-15T11:02:35.656Z,27.92
2018-02-15T11:05:12.808Z,28.12
2018-02-15T11:07:43.874Z,28.08
2018-02-15T11:10:14.910Z,28.04
2018-02-15T11:12:45.958Z,27.90
2018-02-15T11:15:17.046Z,28.20
2018-02-15T11:17:48.089Z,28.52
2018-02-15T11:20:19.142Z,28.70
2018-02-15T11:22:50.189Z,28.99
2018-02-15T11:25:21.241Z,29.40
2018-02-15T11:27:52.315Z,30.15
2018-02-15T11:30:23.415Z,30.10
2018-02-15T11:32:54.424Z,30.10
2018-02-15T11:35:25.459Z,29.85
2018-02-15T11:37:56.503Z,29.13
2018-02-15T11:40:27.495Z,29.38
2018-02-15T11:42:58.520Z,29.23
2018-02-15T11:45:29.658Z,29.11
2018-02-15T11:48:00.728Z,28.83
2018-02-15T11:50:31.732Z,28.60
2018-02-15T11:53:02.799Z,28.46
2018-02-15T11:55:33.829Z,27.70
2018-02-15T11:58:04.873Z,27.58
2018-02-15T12:00:35.922Z,27.54
2018-02-15T12:03:06.967Z,27.81
2018-02-15T12:05:37.998Z,28.20
2018-02-15T12:08:09.044Z,27.75
2018-02-15T12:10:40.070Z,28.16
2018-02-15T12:13:11.149Z,28.24
2018-02-15T12:15:42.224Z,28.95
2018-02-15T12:18:13.251Z,29.33
2018-02-15T12:20:44.333Z,28.82
2018-02-15T12:23:15.359Z,28.30
2018-02-15T12:25:46.376Z,28.08
2018-02-15T12:28:18.070Z,28.37
2018-02-15T12:30:49.735Z,28.22
2018-02-15T12:33:20.810Z,28.82
2018-02-15T12:35:51.851Z,28.98
2018-02-15T12:38:22.908Z,29.29
2018-02-15T12:40:53.957Z,29.28
2018-02-15T12:43:24.998Z,29.21
2018-02-15T12:45:56.030Z,28.91
2018-02-15T12:48:27.079Z,28.77
2018-02-15T12:50:58.149Z,28.93
2018-02-15T12:53:29.197Z,28.60
2018-02-15T12:56:00.430Z,28.81
2018-02-15T12:58:31.452Z,28.71
2018-02-15T13:01:02.566Z,29.48
2018-02-15T13:03:33.589Z,29.96
2018-02-15T13:06:04.740Z,30.64
2018-02-15T13:08:35.758Z,31.58
2018-02-15T13:11:06.808Z,32.59
2018-02-15T13:13:37.862Z,33.10
2018-02-15T13:16:21.293Z,33.48
2018-02-15T13:19:04.592Z,33.83
2018-02-15T13:21:35.639Z,34.71
2018-02-15T13:24:06.679Z,34.98
2018-02-15T13:26:37.708Z,34.95
2018-02-15T13:29:08.762Z,35.61
2018-02-15T13:31:39.802Z,37.05
2018-02-15T13:34:11.045Z,37.36
2018-02-15T13:36:42.052Z,37.85
2018-02-15T13:39:13.076Z,38.21
2018-02-15T13:41:44.072Z,39.13
2018-02-15T13:44:15.138Z,39.78
2018-02-15T13:46:47.131Z,40.06
2018-02-15T13:49:18.191Z,40.91
2018-02-15T13:51:49.213Z,41.14
2018-02-15T13:54:20.430Z,42.12
2018-02-15T13:56:51.498Z,42.93
2018-02-15T13:59:22.533Z,43.31
2018-02-15T14:01:53.560Z,43.88
2018-02-15T14:04:24.621Z,44.77
2018-02-15T14:06:55.640Z,45.34
2018-02-15T14:09:26.699Z,46.30
2018-02-15T14:11:57.846Z,46.94
2018-02-15T14:14:28.914Z,47.94
2018-02-15T14:16:59.961Z,48.55
2018-02-15T14:19:30.981Z,49.09
2018-02-15T14:22:02.020Z,50.01
2018-02-15T14:24:33.012Z,50.47
2018-02-15T14:27:04.040Z,50.61
2018-02-15T14:29:36.100Z,50.87
2018-02-15T14:32:07.153Z,51.64
2018-02-15T14:34:38.202Z,52.59
2018-02-15T14:37:09.301Z,52.75
2018-02-15T14:39:40.336Z,53.12
2018-02-15T14:42:11.375Z,52.93
2018-02-15T14:44:42.486Z,52.78
2018-02-15T14:47:13.484Z,53.17
2018-02-15T14:49:44.535Z,53.64
2018-02-15T14:52:15.536Z,53.63
2018-02-15T14:54:46.552Z,53.83
2018-02-15T14:57:17.608Z,54.29
2018-02-15T14:59:48.699Z,54.90
2018-02-15T15:02:19.743Z,54.78
2018-02-15T15:04:50.778Z,54.60
2018-02-15T15:07:21.842Z,55.11
2018-02-15T15:09:52.828Z,54.92
2018-02-15T15:12:23.933Z,54.87
2018-02-15T15:14:54.959Z,55.17
2018-02-15T15:17:25.994Z,55.28
2018-02-15T15:19:57.068Z,54.85
2018-02-15T15:22:28.086Z,55.40
2018-02-15T15:24:59.095Z,55.69
2018-02-15T15:27:30.130Z,55.46
2018-02-15T15:30:01.184Z,55.34
2018-02-15T15:32:32.256Z,55.08
2018-02-15T15:35:03.342Z,55.20
2018-02-15T15:37:34.725Z,54.97
2018-02-15T15:40:05.860Z,54.69
2018-02-15T15:42:36.918Z,55.11
2018-02-15T15:45:07.929Z,55.18
2018-02-15T15:47:39.003Z,55.02
2018-02-15T15:50:10.050Z,54.69
2018-02-15T15:52:41.088Z,54.83
2018-02-15T15:55:12.141Z,55.43
2018-02-15T15:57:43.146Z,56.08
2018-02-15T16:00:14.186Z,56.86
2018-02-15T16:02:45.246Z,57.19
2018-02-15T16:05:16.280Z,57.44
2018-02-15T16:07:47.284Z,57.73
2018-02-15T16:10:18.294Z,58.24
2018-02-15T16:12:49.335Z,58.02
2018-02-15T16:15:20.424Z,58.15
2018-02-15T16:17:51.525Z,58.22
2018-02-15T16:20:22.523Z,58.13
2018-02-15T16:22:53.560Z,57.89
2018-02-15T16:25:24.589Z,58.29
2018-02-15T16:27:55.696Z,59.24
2018-02-15T16:30:26.776Z,59.22
2018-02-15T16:32:57.870Z,59.65
2018-02-15T16:35:28.912Z,59.37
2018-02-15T16:37:59.940Z,59.14
2018-02-15T16:40:31.002Z,59.23
2018-02-15T16:43:02.064Z,59.94
2018-02-15T16:45:33.221Z,60.26
2018-02-15T16:48:04.324Z,60.21
2018-02-15T16:50:35.370Z,59.98
2018-02-15T16:53:06.458Z,60.01
2018-02-15T16:55:37.492Z,60.10
2018-02-15T16:58:08.520Z,60.28
2018-02-15T17:00:39.553Z,60.69
2018-02-15T17:03:10.616Z,60.57
2018-02-15T17:05:41.613Z,60.75
2018-02-15T17:08:12.679Z,60.44
2018-02-15T17:10:43.708Z,60.19
2018-02-15T17:13:14.719Z,60.25
2018-02-15T17:15:45.756Z,60.18
2018-02-15T17:18:16.804Z,60.14
2018-02-15T17:20:47.845Z,60.16
2018-02-15T17:23:18.913Z,60.15
2018-02-15T17:25:49.992Z,60.33
2018-02-15T17:28:21.000Z,60.34
2018-02-15T17:30:59.160Z,60.28
2018-02-15T17:33:30.197Z,60.46
2018-02-15T17:36:01.251Z,60.65
2018-02-15T17:38:32.251Z,61.00
2018-02-15T17:41:03.325Z,61.28
2018-02-15T17:43:34.445Z,61.18
2018-02-15T17:46:05.438Z,61.00
2018-02-15T17:48:36.454Z,61.06
2018-02-15T17:51:07.520Z,61.25
2018-02-15T17:53:38.541Z,61.30
2018-02-15T17:56:09.579Z,61.38
2018-02-15T17:58:40.622Z,61.27
2018-02-15T18:01:11.667Z,61.31
2018-02-15T18:03:42.719Z,61.33
2018-02-15T18:06:13.784Z,61.55
2018-02-15T18:08:44.806Z,61.53
2018-02-15T18:11:15.833Z,61.55
2018-02-15T18:13:46.868Z,61.94
2018-02-15T18:16:17.890Z,62.28
2018-02-15T18:18:48.908Z,61.56
2018-02-15T18:21:19.939Z,61.42
2018-02-15T18:23:51.019Z,61.52
2018-02-15T18:26:22.052Z,61.97
2018-02-15T18:28:53.074Z,61.89
2018-02-15T18:31:24.221Z,61.91
2018-02-15T18:33:55.219Z,61.76
2018-02-15T18:36:26.284Z,61.57
2018-02-15T18:38:57.286Z,61.67
2018-02-15T18:41:28.329Z,62.07
2018-02-15T18:43:59.353Z,61.87
2018-02-15T18:46:30.471Z,61.74
2018-02-15T18:49:01.533Z,61.79
2018-02-15T18:51:32.547Z,61.96
2018-02-15T18:54:03.614Z,62.05
2018-02-15T18:56:34.642Z,62.06
2018-02-15T18:59:05.711Z,62.16
2018-02-15T19:01:36.742Z,61.85
2018-02-15T19:04:07.764Z,61.72
2018-02-15T19:06:38.808Z,61.84
2018-02-15T19:09:09.857Z,62.01
2018-02-15T19:11:40.895Z,62.10
2018-02-15T19:14:11.965Z,61.92
2018-02-15T19:16:43.650Z,61.85
2018-02-15T19:19:14.676Z,62.13
2018-02-15T19:21:45.773Z,61.99
2018-02-15T19:24:16.824Z,61.73
2018-02-15T19:26:47.818Z,61.98
2018-02-15T19:29:18.859Z,62.24
2018-02-15T19:31:49.900Z,62.08
2018-02-15T19:34:20.932Z,61.82
2018-02-15T19:36:51.962Z,61.87
2018-02-15T19:39:23.006Z,62.25
2018-02-15T19:41:54.072Z,62.68
2018-02-15T19:44:25.161Z,62.63
2018-02-15T19:46:56.190Z,62.42
2018-02-15T19:49:27.852Z,62.27
2018-02-15T19:51:58.843Z,62.05
2018-02-15T19:54:29.886Z,62.15
2018-02-15T19:57:00.911Z,62.26
2018-02-15T19:59:31.967Z,62.61
2018-02-15T20:02:03.015Z,62.68
2018-02-15T20:04:34.078Z,62.83
2018-02-15T20:07:05.156Z,62.83
2018-02-15T20:09:36.184Z,62.47
2018-02-15T20:12:07.239Z,62.37
2018-02-15T20:14:38.277Z,62.40
2018-02-15T20:17:09.304Z,62.50
2018-02-15T20:19:40.374Z,62.59
2018-02-15T20:22:11.365Z,62.84
2018-02-15T20:24:42.408Z,62.67
2018-02-15T20:27:19.588Z,62.71
2018-02-15T20:29:50.613Z,62.79
2018-02-15T20:32:21.621Z,62.90
2018-02-15T20:34:52.664Z,63.03
2018-02-15T20:37:24.648Z,62.93
2018-02-15T20:40:01.688Z,63.45
2018-02-15T20:42:32.721Z,63.47
2018-02-15T20:45:03.812Z,63.81
2018-02-15T20:47:34.837Z,64.37
2018-02-15T20:50:11.779Z,64.59
2018-02-15T20:52:48.857Z,64.59
2018-02-15T20:55:25.880Z,65.28
2018-02-15T20:57:56.930Z,66.15
2018-02-15T21:00:27.948Z,66.78
2018-02-15T21:02:58.967Z,66.05
2018-02-15T21:05:30.017Z,65.56
2018-02-15T21:08:01.319Z,65.56
2018-02-15T21:10:32.373Z,65.73
2018-02-15T21:13:03.426Z,65.82
2018-02-15T21:15:34.494Z,66.04
2018-02-15T21:18:05.476Z,65.96
2018-02-15T21:20:36.533Z,66.13
2018-02-15T21:23:07.544Z,66.29
2018-02-15T21:25:38.593Z,66.35
2018-02-15T21:28:09.625Z,66.38
2018-02-15T21:30:40.675Z,66.93
2018-02-15T21:33:11.707Z,66.73
2018-02-15T21:35:42.762Z,66.45
2018-02-15T21:38:13.806Z,66.77
2018-02-15T21:40:44.831Z,66.97
2018-02-15T21:43:15.875Z,67.06
2018-02-15T21:45:46.914Z,67.34
2018-02-15T21:48:17.946Z,67.68
2018-02-15T21:50:49.020Z,67.67
2018-02-15T21:53:20.136Z,67.52
2018-02-15T21:55:51.223Z,67.31
2018-02-15T21:58:22.358Z,67.17
2018-02-15T22:00:53.368Z,67.32
2018-02-15T22:03:24.432Z,67.41
2018-02-15T22:05:55.488Z,67.28
2018-02-15T22:08:26.504Z,67.34
2018-02-15T22:10:58.450Z,67.16
2018-02-15T22:13:29.484Z,66.86
2018-02-15T22:16:00.495Z,66.84
2018-02-15T22:18:31.504Z,66.95
2018-02-15T22:21:02.581Z,67.06
2018-02-15T22:23:33.562Z,67.14
2018-02-15T22:26:04.571Z,67.19
2018-02-15T22:28:35.542Z,66.95
2018-02-15T22:31:06.527Z,66.89
2018-02-15T22:33:37.681Z,67.00
2018-02-15T22:36:08.690Z,67.07
2018-02-15T22:38:39.725Z,67.23
2018-02-15T22:41:10.704Z,67.23
2018-02-15T22:43:41.733Z,67.18
2018-02-15T22:46:12.740Z,67.05
2018-02-15T22:48:43.760Z,66.95
2018-02-15T22:51:14.792Z,66.70
2018-02-15T22:53:45.793Z,66.68
2018-02-15T22:56:16.803Z,66.38
2018-02-15T22:58:47.753Z,66.33
2018-02-15T23:01:18.759Z,66.63
2018-02-15T23:03:49.766Z,66.48
2018-02-15T23:06:20.766Z,66.44
2018-02-15T23:08:51.813Z,66.21
2018-02-15T23:11:22.816Z,66.29
2018-02-15T23:13:53.796Z,66.56
2018-02-15T23:16:24.768Z,67.01
2018-02-15T23:18:55.837Z,67.26
2018-02-15T23:21:26.844Z,67.79
2018-02-15T23:23:57.848Z,67.65
2018-02-15T23:26:28.840Z,67.63
2018-02-15T23:28:59.805Z,67.93
2018-02-15T23:31:30.789Z,68.00
2018-02-15T23:34:04.725Z,68.06
2018-02-15T23:36:35.740Z,68.16
2018-02-15T23:39:06.724Z,68.39
2018-02-15T23:41:37.745Z,68.51
2018-02-15T23:44:08.735Z,68.84
2018-02-15T23:46:39.712Z,69.24
2018-02-15T23:49:10.756Z,69.78
2018-02-15T23:51:41.779Z,70.23
2018-02-15T23:54:12.763Z,70.47
2018-02-15T23:56:43.780Z,70.38
2018-02-15T23:59:14.777Z,70.58
